Time;durP1;ratioP1;P1;durP2;ratioP2;P2;SDS_P1;SDS_P2;PMS_P1;PMS_P2;Temp;Humidity;BMP_temperature;BMP_pressure;BME280_temperature;BME280_humidity;BME280_pressure;Samples;Min_cycle;Max_cycle;Signal;HPM_P1;HPM_P2
2021/12/14 00:01:09;;;;;;;26.90;20.83;;;7.80;99.90;;;;;;5047149;28;20398;-49
2021/12/14 00:03:36;;;;;;;31.23;21.98;;;7.30;99.90;;;;;;5047777;28;20052;-51
2021/12/14 00:06:03;;;;;;;30.65;21.00;;;7.80;99.90;;;;;;5049330;28;20212;-48
2021/12/14 00:08:35;;;;;;;28.98;21.77;;;7.50;99.90;;;;;;5048802;28;20052;-49
2021/12/14 00:16:56;;;;;;;26.83;21.85;;;7.50;99.90;;;;;;5048833;28;20114;-51
2021/12/14 00:19:23;;;;;;;28.55;20.42;;;7.70;99.90;;;;;;5049058;28;20107;-48
2021/12/14 00:21:52;;;;;;;23.08;19.42;;;7.40;99.90;;;;;;5048429;28;20557;-50
2021/12/14 00:24:19;;;;;;;27.25;20.05;;;8.40;99.90;;;;;;5049277;28;20102;-48
2021/12/14 00:26:56;;;;;;;27.83;19.42;;;7.70;99.90;;;;;;5048548;28;20049;-51
2021/12/14 00:29:30;;;;;;;26.75;20.55;;;7.30;99.90;;;;;;5048366;28;20037;-47
2021/12/14 00:31:59;;;;;;;26.67;17.92;;;7.30;99.90;;;;;;5048243;28;20048;-50
2021/12/14 00:34:34;;;;;;;25.50;18.98;;;7.30;99.90;;;;;;5048394;28;20072;-48
2021/12/14 00:37:00;;;;;;;26.90;18.33;;;7.30;99.90;;;;;;5048332;28;20099;-49
2021/12/14 00:39:26;;;;;;;26.30;18.13;;;7.40;99.90;;;;;;5048168;28;20060;-47
2021/12/14 00:41:52;;;;;;;29.65;20.15;;;8.30;99.90;;;;;;5047120;28;20063;-47
2021/12/14 00:44:18;;;;;;;24.70;19.20;;;7.50;99.90;;;;;;5049023;28;20044;-49
2021/12/14 00:46:44;;;;;;;26.30;18.77;;;7.50;99.90;;;;;;5048949;28;20464;-46
2021/12/14 00:49:12;;;;;;;26.40;19.55;;;7.40;99.90;;;;;;5046757;28;20430;-50
2021/12/14 00:51:38;;;;;;;23.20;16.90;;;7.40;99.90;;;;;;5048388;28;20052;-48
2021/12/14 00:54:07;;;;;;;29.38;18.75;;;7.30;99.90;;;;;;5047760;28;20309;-49
2021/12/14 00:56:33;;;;;;;23.70;17.42;;;7.30;99.90;;;;;;5048155;28;20134;-47
2021/12/14 00:59:04;;;;;;;25.70;18.85;;;7.40;99.90;;;;;;5046349;28;20442;-48
2021/12/14 01:01:34;;;;;;;26.52;18.02;;;7.40;99.90;;;;;;5046808;28;20045;-49
2021/12/14 01:04:04;;;;;;;26.25;19.25;;;7.40;99.90;;;;;;5048351;28;20041;-47
2021/12/14 01:06:34;;;;;;;30.83;18.95;;;7.30;99.90;;;;;;5048331;28;20040;-47
2021/12/14 01:09:04;;;;;;;24.20;18.90;;;7.30;99.90;;;;;;5048287;28;20033;-51
2021/12/14 01:11:37;;;;;;;23.08;18.10;;;7.30;99.90;;;;;;5048393;28;20395;-48
2021/12/14 01:14:33;;;;;;;26.30;19.70;;;8.30;99.90;;;;;;5047823;28;20045;-50
2021/12/14 01:17:27;;;;;;;25.77;17.65;;;7.40;99.90;;;;;;5046419;28;20045;-47
2021/12/14 01:19:58;;;;;;;24.88;18.48;;;7.40;99.90;;;;;;5047603;28;20249;-46
2021/12/14 01:22:44;;;;;;;25.40;19.73;;;7.40;99.90;;;;;;5048045;28;20041;-47
2021/12/14 01:25:33;;;;;;;28.30;20.85;;;7.20;99.90;;;;;;5047684;28;20146;-50
2021/12/14 01:28:05;;;;;;;28.77;20.40;;;8.30;99.90;;;;;;5047360;28;20045;-47
2021/12/14 01:30:34;;;;;;;;;;;7.40;99.90;;;;;;5048705;28;20976;-46
2021/12/14 01:33:04;;;;;;;28.40;20.10;;;7.10;99.90;;;;;;5051317;28;19921;-47
2021/12/14 01:35:33;;;;;;;26.38;20.92;;;7.20;99.90;;;;;;5051877;28;20456;-50
2021/12/14 01:40:53;;;;;;;33.00;22.08;;;7.90;99.90;;;;;;5051547;28;20525;-47
2021/12/14 01:43:43;;;;;;;29.42;20.55;;;7.70;99.90;;;;;;5051862;28;20112;-48
2021/12/14 01:46:18;;;;;;;28.73;20.13;;;7.30;99.90;;;;;;5051519;28;20048;-48
2021/12/14 01:48:44;;;;;;;31.80;22.40;;;7.40;99.90;;;;;;5051784;28;20120;-47
2021/12/14 01:51:10;;;;;;;31.33;22.58;;;8.30;99.90;;;;;;5052108;28;20444;-48
2021/12/14 01:53:40;;;;;;;32.67;23.10;;;7.40;99.90;;;;;;5052166;28;20095;-46
2021/12/14 01:56:11;;;;;;;29.70;21.63;;;7.30;99.90;;;;;;5051343;28;20041;-50
2021/12/14 01:58:45;;;;;;;34.67;23.23;;;8.20;99.90;;;;;;5051432;28;20402;-50
2021/12/14 02:01:20;;;;;;;35.30;24.67;;;7.30;99.90;;;;;;5049948;28;20045;-47
2021/12/14 02:03:55;;;;;;;30.73;21.23;;;7.20;99.90;;;;;;5051186;28;20047;-46
2021/12/14 02:06:26;;;;;;;33.45;22.60;;;7.40;99.90;;;;;;5051133;28;20059;-48
2021/12/14 02:08:59;;;;;;;35.40;24.30;;;8.00;99.90;;;;;;5051053;28;20079;-47
2021/12/14 02:11:29;;;;;;;30.80;22.58;;;7.20;99.90;;;;;;5051039;28;20041;-47
2021/12/14 02:13:56;;;;;;;33.67;25.23;;;7.80;99.90;;;;;;5050826;28;20099;-46
2021/12/14 02:16:24;;;;;;;32.42;24.63;;;7.30;99.90;;;;;;5066331;28;20047;-51
2021/12/14 02:18:56;;;;;;;30.52;22.15;;;7.30;99.90;;;;;;5050855;28;20049;-46
2021/12/14 02:21:22;;;;;;;32.40;24.38;;;7.30;99.90;;;;;;5051168;28;20445;-48
2021/12/14 02:23:51;;;;;;;34.97;24.52;;;7.20;99.90;;;;;;5051022;28;20048;-48
2021/12/14 02:26:21;;;;;;;35.30;23.60;;;7.30;99.90;;;;;;5050612;28;20375;-47
2021/12/14 02:28:47;;;;;;;34.97;23.80;;;7.30;99.90;;;;;;5051332;28;20041;-46
2021/12/14 02:31:16;;;;;;;34.63;23.95;;;7.30;99.90;;;;;;5050980;28;20127;-47
2021/12/14 02:33:47;;;;;;;33.90;24.38;;;7.30;99.90;;;;;;5050777;28;20052;-48
2021/12/14 02:36:24;;;;;;;36.83;24.90;;;7.60;99.90;;;;;;5050514;28;20463;-46
2021/12/14 02:39:04;;;;;;;31.63;22.27;;;8.20;99.90;;;;;;5050187;28;20396;-49
2021/12/14 02:41:30;;;;;;;34.75;25.20;;;7.30;99.90;;;;;;5049131;28;20037;-47
2021/12/14 02:43:58;;;;;;;35.08;24.88;;;8.20;99.90;;;;;;5047965;28;20094;-48
2021/12/14 02:46:31;;;;;;;38.38;25.80;;;7.20;99.90;;;;;;5050190;28;20128;-47
2021/12/14 02:49:01;;;;;;;;;;;7.40;99.90;;;;;;5050840;28;20509;-48
2021/12/14 02:51:40;;;;;;;33.78;23.42;;;7.50;99.90;;;;;;5050223;28;19942;-47
2021/12/14 02:54:21;;;;;;;36.60;25.02;;;7.40;99.90;;;;;;5050147;28;20033;-48
2021/12/14 02:56:49;;;;;;;37.08;24.00;;;7.40;99.90;;;;;;5050302;28;20144;-48
2021/12/14 02:59:19;;;;;;;33.95;23.70;;;7.40;99.90;;;;;;5049876;28;20102;-49
2021/12/14 03:01:48;;;;;;;35.67;24.17;;;7.30;99.90;;;;;;5048464;28;20096;-47
2021/12/14 03:04:15;;;;;;;38.17;25.80;;;7.20;99.90;;;;;;5049642;28;20041;-46
2021/12/14 03:06:48;;;;;;;38.85;25.67;;;7.20;99.90;;;;;;5050054;28;20041;-48
2021/12/14 03:09:35;;;;;;;34.40;24.13;;;7.30;99.90;;;;;;5049692;28;20037;-47
2021/12/14 03:12:14;;;;;;;33.92;23.55;;;8.70;99.90;;;;;;5049917;28;20048;-47
2021/12/14 03:14:46;;;;;;;35.35;24.77;;;7.40;99.90;;;;;;5050072;28;20044;-47
2021/12/14 03:17:12;;;;;;;37.95;25.70;;;7.20;99.90;;;;;;5050357;28;20058;-47
2021/12/14 03:19:38;;;;;;;39.83;25.52;;;7.20;99.90;;;;;;5049878;28;20049;-47
2021/12/14 03:22:20;;;;;;;40.05;26.55;;;7.30;99.90;;;;;;5049816;28;20047;-48
2021/12/14 03:24:46;;;;;;;;;;;7.30;99.90;;;;;;5050407;28;20044;-48
2021/12/14 03:27:11;;;;;;;42.08;26.00;;;7.40;99.90;;;;;;5050018;28;19998;-47
2021/12/14 03:29:37;;;;;;;40.20;26.77;;;7.30;99.90;;;;;;5049860;28;20045;-47
2021/12/14 03:32:03;;;;;;;43.70;26.30;;;7.30;99.90;;;;;;5049920;28;20045;-50
2021/12/14 03:34:35;;;;;;;37.90;25.38;;;7.20;99.90;;;;;;5049299;28;20047;-47
2021/12/14 03:37:06;;;;;;;43.35;28.02;;;7.00;99.90;;;;;;5049562;28;20422;-46
2021/12/14 03:39:39;;;;;;;42.33;27.05;;;7.10;99.90;;;;;;5049223;28;20053;-48
2021/12/14 03:42:25;;;;;;;41.03;26.92;;;7.00;99.90;;;;;;5049750;28;20120;-47
2021/12/14 03:44:57;;;;;;;47.42;29.38;;;7.00;99.90;;;;;;5050049;28;20041;-47
2021/12/14 03:47:37;;;;;;;44.58;29.17;;;6.90;99.90;;;;;;5049379;28;20392;-47
2021/12/14 03:50:11;;;;;;;47.35;29.38;;;6.80;99.90;;;;;;5049372;28;20041;-47
2021/12/14 03:52:39;;;;;;;47.72;30.13;;;6.90;99.90;;;;;;5049584;28;20049;-46
2021/12/14 03:55:18;;;;;;;50.15;30.02;;;6.90;99.90;;;;;;5049204;28;20130;-48
2021/12/14 03:57:44;;;;;;;52.65;32.33;;;6.90;99.90;;;;;;5049641;28;20471;-50
2021/12/14 04:00:16;;;;;;;48.50;29.65;;;7.00;99.90;;;;;;5047876;28;20103;-48
2021/12/14 04:02:42;;;;;;;;;;;7.00;99.90;;;;;;5049517;28;20123;-48
2021/12/14 04:05:11;;;;;;;49.17;29.48;;;7.60;99.90;;;;;;5048786;28;20326;-49
2021/12/14 04:07:41;;;;;;;61.92;33.35;;;7.00;99.90;;;;;;5048684;28;20060;-46
2021/12/14 04:10:15;;;;;;;49.22;30.95;;;6.80;99.90;;;;;;5049104;28;20375;-47
2021/12/14 04:12:41;;;;;;;51.38;31.02;;;7.00;99.90;;;;;;5048955;28;20394;-47
2021/12/14 04:15:08;;;;;;;49.67;27.85;;;8.00;99.90;;;;;;5048860;28;20056;-49
2021/12/14 04:17:34;;;;;;;56.35;33.38;;;7.10;99.90;;;;;;5047187;28;20144;-47
2021/12/14 04:20:00;;;;;;;55.50;32.50;;;6.90;99.90;;;;;;5048575;28;20128;-48
2021/12/14 04:22:30;;;;;;;57.00;32.33;;;6.90;99.90;;;;;;5048220;28;20044;-47
2021/12/14 04:25:00;;;;;;;57.53;33.08;;;7.30;99.90;;;;;;5046963;28;20632;-48
2021/12/14 04:27:29;;;;;;;56.13;33.53;;;8.30;99.90;;;;;;5048532;28;20044;-48
2021/12/14 04:29:56;;;;;;;51.67;32.20;;;7.90;99.90;;;;;;5048609;28;20565;-46
2021/12/14 04:32:22;;;;;;;51.22;31.40;;;7.10;99.90;;;;;;5048314;28;20404;-47
2021/12/14 04:34:49;;;;;;;65.18;34.65;;;7.20;99.90;;;;;;5047378;28;20530;-47
2021/12/14 04:37:17;;;;;;;52.95;31.10;;;7.30;99.90;;;;;;5048318;28;20044;-48
2021/12/14 04:40:09;;;;;;;52.80;30.95;;;8.10;99.90;;;;;;5048410;28;20379;-46
2021/12/14 04:54:00;;;;;;;55.25;33.53;;;7.80;99.90;;;;;;5048379;28;20115;-46
2021/12/14 04:56:34;;;;;;;52.20;32.63;;;7.40;99.90;;;;;;5047999;28;20115;-46
2021/12/14 04:59:10;;;;;;;55.88;33.50;;;8.30;99.90;;;;;;5047130;28;20482;-46
2021/12/14 05:01:41;;;;;;;51.03;31.95;;;7.20;99.90;;;;;;5046306;28;20060;-48
2021/12/14 05:04:10;;;;;;;54.28;33.45;;;7.40;99.90;;;;;;5046393;28;20041;-47
2021/12/14 05:06:48;;;;;;;54.67;32.72;;;7.20;99.90;;;;;;5050223;28;20127;-47
2021/12/14 05:09:21;;;;;;;54.03;29.58;;;8.10;99.90;;;;;;5052108;28;20506;-48
2021/12/14 05:11:49;;;;;;;52.40;31.10;;;7.20;99.90;;;;;;5052158;28;20047;-46
2021/12/14 05:14:14;;;;;;;53.00;33.63;;;7.50;99.90;;;;;;5052359;28;20033;-49
2021/12/14 05:16:41;;;;;;;53.20;32.88;;;7.90;99.90;;;;;;5052045;28;20047;-49
2021/12/14 05:19:10;;;;;;;54.35;34.22;;;7.60;99.90;;;;;;5052701;28;20041;-47
2021/12/14 05:21:43;;;;;;;51.65;34.08;;;7.50;99.90;;;;;;5050591;28;20479;-47
2021/12/14 05:24:12;;;;;;;52.50;33.75;;;7.50;99.90;;;;;;5052509;28;20540;-46
2021/12/14 05:26:39;;;;;;;53.80;32.15;;;7.60;99.90;;;;;;5052529;28;20044;-46
2021/12/14 05:29:08;;;;;;;49.28;31.25;;;7.50;99.90;;;;;;5030164;28;20517;-44
2021/12/14 05:31:40;;;;;;;55.53;33.35;;;7.90;99.90;;;;;;5039465;28;20116;-55
2021/12/14 05:34:05;;;;;;;54.40;32.90;;;7.30;99.90;;;;;;5038936;28;20045;-58
2021/12/14 05:36:31;;;;;;;49.95;32.95;;;8.30;99.90;;;;;;5042717;28;20112;-58
2021/12/14 05:44:17;;;;;;;56.90;33.88;;;8.00;99.90;;;;;;5041886;28;20114;-52
2021/12/14 05:46:50;;;;;;;50.38;33.72;;;7.60;99.90;;;;;;5035902;28;20413;-45
2021/12/14 05:49:17;;;;;;;;;;;7.60;99.90;;;;;;5037572;28;20040;-48
2021/12/14 05:51:42;;;;;;;54.08;32.65;;;7.50;99.90;;;;;;5037931;28;21193;-48
2021/12/14 05:54:08;;;;;;;51.92;33.53;;;7.60;99.90;;;;;;5040722;28;20033;-50
2021/12/14 05:56:34;;;;;;;53.00;34.13;;;7.70;99.90;;;;;;5037856;28;20045;-47
2021/12/14 05:59:01;;;;;;;55.10;35.30;;;8.40;99.90;;;;;;5037393;28;20132;-56
2021/12/14 06:01:30;;;;;;;53.30;32.03;;;7.50;99.90;;;;;;5035042;28;20034;-47
2021/12/14 06:04:03;;;;;;;57.30;34.78;;;7.60;99.90;;;;;;5041660;28;20060;-56
2021/12/14 06:06:36;;;;;;;57.00;35.13;;;7.60;99.90;;;;;;5039670;28;20128;-57
2021/12/14 06:09:13;;;;;;;55.17;34.53;;;7.50;99.90;;;;;;5048098;28;20048;-49
2021/12/14 06:11:40;;;;;;;60.00;35.03;;;7.60;99.90;;;;;;5050925;28;20052;-47
2021/12/14 06:14:21;;;;;;;60.22;36.85;;;7.50;99.90;;;;;;5050844;28;20041;-47
2021/12/14 06:16:50;;;;;;;65.75;39.42;;;7.60;99.90;;;;;;5050748;28;20049;-49
2021/12/14 06:19:23;;;;;;;61.75;36.88;;;7.40;99.90;;;;;;5051022;28;20641;-46
2021/12/14 06:22:02;;;;;;;67.70;37.67;;;7.50;99.90;;;;;;5050392;28;20048;-46
2021/12/14 06:24:30;;;;;;;64.25;37.70;;;7.50;99.90;;;;;;5051173;28;20513;-47
2021/12/14 06:26:59;;;;;;;67.60;37.80;;;8.50;99.90;;;;;;5049834;28;20072;-47
2021/12/14 06:29:47;;;;;;;66.45;38.35;;;8.30;99.90;;;;;;5051214;28;20155;-47
2021/12/14 06:32:19;;;;;;;66.50;37.95;;;7.50;99.90;;;;;;5050628;28;20053;-47
2021/12/14 06:34:49;;;;;;;;;;;8.20;99.90;;;;;;5050977;28;20072;-48
2021/12/14 06:37:30;;;;;;;68.40;40.97;;;7.40;99.90;;;;;;5050380;28;19921;-47
2021/12/14 06:40:10;;;;;;;69.85;40.28;;;7.50;99.90;;;;;;5050476;28;20037;-48
2021/12/14 06:42:46;;;;;;;77.82;43.30;;;7.50;99.90;;;;;;5050303;28;20049;-48
2021/12/14 06:45:24;;;;;;;77.15;43.38;;;7.50;99.90;;;;;;5050735;28;20045;-48
2021/12/14 06:47:53;;;;;;;78.00;43.03;;;7.30;99.90;;;;;;5050570;28;20162;-48
2021/12/14 06:50:27;;;;;;;74.53;43.35;;;7.40;99.90;;;;;;5050710;28;20044;-46
2021/12/14 06:53:19;;;;;;;79.68;43.60;;;7.40;99.90;;;;;;5050638;28;20053;-47
2021/12/14 06:55:45;;;;;;;;;;;7.30;99.90;;;;;;5049566;28;20463;-46
2021/12/14 06:58:19;;;;;;;77.75;43.78;;;7.70;99.90;;;;;;5050565;28;19973;-47
2021/12/14 07:01:05;;;;;;;76.25;42.42;;;8.30;99.90;;;;;;5048620;28;20052;-47
2021/12/14 07:03:41;;;;;;;80.28;44.97;;;7.50;99.90;;;;;;5050250;28;20049;-46
2021/12/14 07:06:07;;;;;;;86.55;46.63;;;7.30;99.90;;;;;;5050212;28;20037;-46
2021/12/14 07:08:33;;;;;;;77.07;42.92;;;7.50;99.90;;;;;;5050151;28;20548;-47
2021/12/14 07:10:59;;;;;;;77.85;42.65;;;7.50;99.90;;;;;;5049962;28;20048;-46
2021/12/14 07:13:34;;;;;;;78.35;43.80;;;7.50;99.90;;;;;;5050184;28;20111;-46
2021/12/14 07:16:11;;;;;;;85.22;47.03;;;7.50;99.90;;;;;;5049900;28;20116;-46
2021/12/14 07:18:37;;;;;;;79.93;45.05;;;7.50;99.90;;;;;;5049778;28;20059;-49
2021/12/14 07:21:03;;;;;;;85.43;44.53;;;7.50;99.90;;;;;;5050045;28;20055;-46
2021/12/14 07:23:33;;;;;;;91.30;46.17;;;7.80;99.90;;;;;;5049877;28;20041;-47
2021/12/14 07:26:09;;;;;;;92.88;48.53;;;7.50;99.90;;;;;;5049542;28;20049;-46
2021/12/14 07:28:45;;;;;;;99.10;51.33;;;7.50;99.90;;;;;;5049220;28;20037;-47
2021/12/14 07:31:16;;;;;;;92.53;46.35;;;7.70;99.90;;;;;;5050147;28;20060;-46
2021/12/14 07:33:54;;;;;;;111.95;50.90;;;7.70;99.90;;;;;;5049314;28;20453;-46
2021/12/14 07:36:24;;;;;;;120.28;51.60;;;7.60;99.90;;;;;;5049601;28;20045;-47
2021/12/14 07:38:59;;;;;;;118.50;54.40;;;7.30;99.90;;;;;;5046693;28;20064;-47
2021/12/14 07:41:37;;;;;;;122.63;53.30;;;7.90;99.90;;;;;;5049371;28;20057;-47
2021/12/14 07:44:10;;;;;;;119.05;51.80;;;7.40;99.90;;;;;;5047119;28;20044;-46
2021/12/14 07:46:40;;;;;;;112.22;51.42;;;7.40;99.90;;;;;;5048985;28;20492;-46
2021/12/14 07:49:26;;;;;;;119.53;53.00;;;7.40;99.90;;;;;;5049308;28;20130;-46
2021/12/14 07:52:03;;;;;;;119.65;52.45;;;7.40;99.90;;;;;;5048804;28;20045;-47
2021/12/14 07:54:38;;;;;;;121.10;51.60;;;7.40;99.90;;;;;;5049106;28;20499;-48
2021/12/14 07:57:12;;;;;;;141.45;56.65;;;8.20;99.90;;;;;;5048675;28;20052;-46
2021/12/14 07:59:44;;;;;;;149.93;56.25;;;7.20;99.90;;;;;;5049055;28;20082;-48
2021/12/14 08:02:33;;;;;;;;;;;7.40;99.90;;;;;;5029754;28;20055;-48
2021/12/14 08:05:01;;;;;;;155.68;57.55;;;7.90;99.90;;;;;;5018045;28;20415;-48
2021/12/14 08:07:43;;;;;;;114.65;45.47;;;7.30;99.90;;;;;;5028883;28;20124;-50
2021/12/14 08:10:08;;;;;;;151.57;59.10;;;7.50;99.90;;;;;;5028851;28;20042;-50
2021/12/14 08:12:46;;;;;;;155.25;57.65;;;7.50;99.90;;;;;;5031534;28;20049;-48
2021/12/14 08:15:33;;;;;;;154.30;56.85;;;7.50;99.90;;;;;;5060034;28;20057;-48
2021/12/14 08:18:22;;;;;;;160.93;59.08;;;7.50;99.90;;;;;;5027093;28;20049;-46
2021/12/14 08:20:55;;;;;;;164.70;59.83;;;7.50;99.90;;;;;;5028644;28;20080;-47
2021/12/14 08:23:32;;;;;;;143.38;56.33;;;7.50;99.90;;;;;;5028785;28;20049;-49
2021/12/14 08:26:12;;;;;;;153.10;55.90;;;7.60;99.90;;;;;;5028552;28;20041;-48
2021/12/14 08:29:00;;;;;;;168.55;59.55;;;7.60;99.90;;;;;;5028668;28;20041;-50
2021/12/14 08:31:41;;;;;;;147.23;57.17;;;7.50;99.90;;;;;;5028803;28;20044;-51
2021/12/14 08:34:11;;;;;;;162.82;60.42;;;7.70;99.90;;;;;;5028815;28;20487;-47
2021/12/14 08:36:46;;;;;;;138.00;55.65;;;7.70;99.90;;;;;;5029421;28;20407;-47
2021/12/14 08:39:20;;;;;;;147.52;57.88;;;7.60;99.90;;;;;;5028475;28;20420;-48
2021/12/14 08:41:54;;;;;;;146.43;56.53;;;7.70;99.90;;;;;;5027542;28;20120;-49
2021/12/14 08:44:35;;;;;;;165.63;60.38;;;7.70;99.90;;;;;;5028709;28;20050;-46
2021/12/14 08:47:04;;;;;;;171.52;61.83;;;7.80;99.90;;;;;;5028468;28;20324;-47
2021/12/14 08:49:31;;;;;;;146.65;56.63;;;7.80;99.90;;;;;;5028471;28;20042;-50
2021/12/14 08:51:56;;;;;;;148.55;57.75;;;7.80;99.90;;;;;;5028528;28;20103;-47
2021/12/14 08:54:27;;;;;;;139.73;57.80;;;8.20;99.90;;;;;;5028368;28;20540;-48
2021/12/14 08:57:13;;;;;;;148.73;58.70;;;7.90;99.90;;;;;;5028662;28;20045;-47
2021/12/14 08:59:41;;;;;;;130.43;56.58;;;7.90;99.90;;;;;;5028532;28;20064;-48
2021/12/14 09:02:11;;;;;;;138.10;57.00;;;7.90;99.90;;;;;;5046102;28;20047;-47
2021/12/14 09:04:43;;;;;;;148.45;57.92;;;7.80;99.90;;;;;;5048881;28;20445;-47
2021/12/14 09:07:19;;;;;;;138.43;57.33;;;7.90;99.90;;;;;;5048093;28;20129;-47
2021/12/14 09:09:46;;;;;;;138.40;58.25;;;7.90;99.90;;;;;;5048454;28;20399;-48
2021/12/14 09:12:19;;;;;;;136.23;57.50;;;7.70;99.90;;;;;;5048359;28;20056;-47
2021/12/14 09:14:48;;;;;;;137.88;58.17;;;7.60;99.90;;;;;;5048491;28;20067;-46
2021/12/14 09:17:16;;;;;;;128.40;57.92;;;7.70;99.90;;;;;;5048273;28;20112;-48
2021/12/14 09:19:49;;;;;;;124.78;55.17;;;7.70;99.90;;;;;;5048359;28;20488;-48
2021/12/14 09:22:23;;;;;;;132.35;58.55;;;8.00;99.90;;;;;;5048519;28;20041;-47
2021/12/14 09:24:49;;;;;;;133.65;58.38;;;7.90;99.90;;;;;;5048288;28;20459;-46
2021/12/14 09:27:20;;;;;;;137.10;58.45;;;8.50;99.90;;;;;;5048498;28;20382;-47
2021/12/14 09:29:48;;;;;;;136.30;59.42;;;8.00;99.90;;;;;;5048115;28;20036;-47
2021/12/14 09:32:20;;;;;;;118.43;54.55;;;8.00;99.90;;;;;;5048087;28;20049;-46
2021/12/14 09:34:46;;;;;;;118.93;56.40;;;8.00;99.90;;;;;;5048095;28;20041;-48
2021/12/14 09:37:13;;;;;;;120.30;53.83;;;8.50;99.90;;;;;;5047564;28;20064;-46
2021/12/14 09:39:57;;;;;;;126.25;56.45;;;8.00;99.90;;;;;;5047521;28;20048;-48
2021/12/14 09:42:27;;;;;;;115.82;56.10;;;8.20;99.90;;;;;;5047983;28;20160;-47
2021/12/14 09:44:57;;;;;;;109.30;54.17;;;8.50;99.90;;;;;;5047788;28;20266;-47
2021/12/14 09:47:26;;;;;;;115.28;56.20;;;8.10;99.90;;;;;;5048395;28;20049;-47
2021/12/14 09:49:53;;;;;;;117.38;56.72;;;9.10;99.90;;;;;;5048012;28;20114;-48
2021/12/14 09:52:32;;;;;;;107.93;54.90;;;8.70;99.90;;;;;;5049555;28;20080;-47
2021/12/14 09:55:03;;;;;;;110.70;55.13;;;8.40;99.90;;;;;;5051097;28;20080;-47
2021/12/14 09:57:37;;;;;;;102.60;52.33;;;8.20;99.90;;;;;;5051587;28;20059;-48
2021/12/14 10:00:10;;;;;;;100.63;52.17;;;8.40;99.90;;;;;;5049788;28;20567;-49
2021/12/14 10:02:38;;;;;;;111.47;55.65;;;8.40;99.90;;;;;;5051103;28;20091;-47
2021/12/14 10:05:17;;;;;;;107.13;54.95;;;8.90;99.90;;;;;;5051078;28;20041;-47
2021/12/14 10:07:43;;;;;;;101.43;52.38;;;8.50;99.90;;;;;;5049909;28;20503;-48
2021/12/14 10:10:13;;;;;;;110.55;53.70;;;8.50;99.90;;;;;;5051289;28;20041;-48
2021/12/14 10:12:49;;;;;;;99.45;51.50;;;8.90;99.90;;;;;;5051157;28;20037;-51
2021/12/14 10:15:30;;;;;;;95.25;50.00;;;8.60;99.90;;;;;;5050832;28;20411;-48
2021/12/14 10:18:00;;;;;;;89.30;45.97;;;8.50;99.90;;;;;;5050697;28;20044;-48
2021/12/14 10:20:39;;;;;;;101.05;51.85;;;9.20;99.90;;;;;;5051713;28;20123;-49
2021/12/14 10:23:05;;;;;;;94.60;51.13;;;8.20;99.90;;;;;;5050840;28;20049;-46
2021/12/14 10:25:32;;;;;;;104.60;53.33;;;8.20;99.90;;;;;;5051126;28;20037;-47
2021/12/14 10:27:58;;;;;;;102.32;50.58;;;8.70;99.90;;;;;;5051351;28;20040;-47
2021/12/14 10:30:31;;;;;;;102.80;53.00;;;8.90;99.90;;;;;;5051030;28;20047;-49
2021/12/14 10:33:00;;;;;;;102.80;53.22;;;8.20;99.90;;;;;;5051139;28;20380;-47
2021/12/14 10:35:34;;;;;;;102.28;52.38;;;8.40;99.90;;;;;;5050898;28;20048;-49
2021/12/14 10:38:20;;;;;;;104.03;49.35;;;8.40;99.90;;;;;;5050590;28;20123;-47
2021/12/14 10:43:36;;;;;;;105.70;51.75;;;8.30;99.90;;;;;;5050650;28;20060;-46
2021/12/14 10:46:25;;;;;;;94.35;46.33;;;8.30;99.90;;;;;;5050643;28;20049;-46
2021/12/14 10:48:52;;;;;;;103.60;52.47;;;8.30;99.90;;;;;;5049946;28;20057;-46
2021/12/14 10:51:20;;;;;;;105.07;50.45;;;8.10;99.90;;;;;;5050122;28;20037;-46
2021/12/14 10:53:49;;;;;;;95.85;50.05;;;8.40;99.90;;;;;;5049150;28;20052;-46
2021/12/14 10:56:29;;;;;;;91.90;48.10;;;8.40;99.90;;;;;;5050184;28;20045;-49
2021/12/14 10:58:58;;;;;;;87.60;44.92;;;8.40;99.90;;;;;;5050255;28;20067;-47
2021/12/14 11:01:30;;;;;;;82.65;44.83;;;8.50;99.90;;;;;;5048372;28;20063;-46
2021/12/14 11:04:02;;;;;;;90.72;48.78;;;8.50;99.90;;;;;;5049094;28;20041;-46
2021/12/14 11:06:31;;;;;;;86.60;45.15;;;7.90;99.90;;;;;;5050407;28;20060;-48
2021/12/14 11:11:39;;;;;;;96.30;49.67;;;9.40;99.90;;;;;;5050713;28;20052;-47
2021/12/14 11:14:08;;;;;;;96.38;48.53;;;8.70;99.90;;;;;;5049589;28;20036;-46
2021/12/14 11:19:52;;;;;;;90.85;44.88;;;8.60;99.90;;;;;;5049860;28;20545;-47
2021/12/14 11:22:51;;;;;;;92.80;43.85;;;8.60;99.90;;;;;;5049655;28;20067;-47
2021/12/14 11:25:25;;;;;;;109.07;47.20;;;8.50;99.90;;;;;;5049201;28;20103;-48
2021/12/14 11:28:02;;;;;;;93.70;43.03;;;8.50;99.90;;;;;;5050322;28;20099;-47
2021/12/14 11:30:50;;;;;;;92.55;45.50;;;8.60;99.90;;;;;;5049973;28;20124;-46
2021/12/14 11:33:20;;;;;;;93.85;46.58;;;8.50;99.90;;;;;;5050048;28;20090;-47
2021/12/14 11:36:05;;;;;;;101.32;45.75;;;8.40;99.90;;;;;;5049464;28;20052;-47
2021/12/14 11:38:42;;;;;;;95.00;44.88;;;9.60;99.90;;;;;;5049311;28;20056;-47
2021/12/14 11:41:33;;;;;;;95.93;46.97;;;8.60;99.90;;;;;;5049387;28;20037;-48
2021/12/14 11:44:38;;;;;;;91.85;43.10;;;8.60;99.90;;;;;;5049318;28;20045;-46
2021/12/14 11:47:21;;;;;;;85.55;41.15;;;8.60;99.90;;;;;;5006954;28;20093;-50
2021/12/14 11:49:55;;;;;;;88.85;41.97;;;9.60;99.90;;;;;;5046801;28;20502;-47
2021/12/14 11:52:39;;;;;;;86.85;42.95;;;8.60;99.90;;;;;;5049364;28;20087;-47
2021/12/14 11:55:33;;;;;;;83.68;40.50;;;8.50;99.90;;;;;;5049311;28;20094;-46
2021/12/14 11:58:20;;;;;;;82.57;40.40;;;8.60;99.90;;;;;;5045242;28;20113;-46
2021/12/14 12:00:55;;;;;;;89.97;43.03;;;8.50;99.90;;;;;;5047633;28;20049;-47
2021/12/14 12:03:32;;;;;;;88.32;42.20;;;8.60;99.90;;;;;;5048803;28;20120;-46
2021/12/14 12:06:08;;;;;;;75.00;37.70;;;9.00;99.90;;;;;;5049138;28;20029;-47
2021/12/14 12:11:29;;;;;;;87.18;41.20;;;8.30;99.90;;;;;;5048781;28;20091;-47
2021/12/14 12:13:55;;;;;;;;;;;8.40;99.90;;;;;;5049644;28;20048;-47
2021/12/14 12:16:25;;;;;;;79.40;37.58;;;8.70;99.90;;;;;;5048857;28;19920;-46
2021/12/14 12:19:15;;;;;;;83.40;39.70;;;8.50;99.90;;;;;;5049468;28;20475;-49
2021/12/14 12:21:44;;;;;;;90.30;41.67;;;8.50;99.90;;;;;;5048786;28;20491;-46
2021/12/14 12:24:43;;;;;;;93.65;40.85;;;8.40;99.90;;;;;;5048511;28;20056;-47
2021/12/14 12:27:41;;;;;;;87.80;39.60;;;8.50;99.90;;;;;;5048587;28;20121;-47
2021/12/14 12:30:32;;;;;;;82.32;36.65;;;8.50;99.90;;;;;;5027115;28;20048;-47
2021/12/14 12:33:14;;;;;;;98.53;38.90;;;8.30;99.90;;;;;;5048885;28;20036;-46
2021/12/14 12:35:44;;;;;;;93.20;40.90;;;8.30;99.90;;;;;;5048489;28;20068;-47
2021/12/14 12:38:27;;;;;;;89.18;39.67;;;8.40;99.90;;;;;;5046348;28;20447;-47
2021/12/14 12:41:00;;;;;;;94.88;39.67;;;8.50;99.90;;;;;;5048782;28;20063;-46
2021/12/14 12:43:39;;;;;;;90.60;38.25;;;8.30;99.90;;;;;;5048408;28;20515;-47
2021/12/14 12:46:11;;;;;;;98.30;38.85;;;8.40;99.90;;;;;;5048246;28;20483;-48
2021/12/14 12:48:46;;;;;;;93.32;37.78;;;8.50;99.90;;;;;;5048805;28;20056;-47
2021/12/14 12:51:44;;;;;;;97.03;39.92;;;8.50;99.90;;;;;;5048212;28;20570;-46
2021/12/14 12:54:12;;;;;;;102.22;40.75;;;8.40;99.90;;;;;;5048534;28;20114;-46
2021/12/14 12:57:10;;;;;;;93.15;40.28;;;9.20;99.90;;;;;;5048378;28;20084;-46
2021/12/14 13:00:08;;;;;;;96.05;36.55;;;8.50;99.90;;;;;;5048190;28;20455;-47
2021/12/14 13:02:47;;;;;;;78.25;33.00;;;8.60;99.90;;;;;;5010164;28;20061;-48
2021/12/14 13:05:29;;;;;;;88.30;37.65;;;8.60;99.90;;;;;;5028251;28;20049;-46
2021/12/14 13:08:03;;;;;;;87.22;37.53;;;8.40;99.90;;;;;;5028314;28;20037;-46
2021/12/14 13:10:35;;;;;;;93.18;37.88;;;8.60;99.90;;;;;;5027984;28;20067;-46
2021/12/14 13:13:25;;;;;;;94.53;39.13;;;8.60;99.90;;;;;;5028308;28;20049;-47
2021/12/14 13:16:10;;;;;;;98.45;37.55;;;8.40;99.90;;;;;;5023700;28;20291;-46
2021/12/14 13:18:49;;;;;;;92.72;37.60;;;8.70;99.90;;;;;;5028319;28;20175;-49
2021/12/14 13:21:18;;;;;;;83.38;37.80;;;9.00;99.90;;;;;;5028270;28;20048;-46
2021/12/14 13:23:51;;;;;;;94.25;36.70;;;8.70;99.90;;;;;;5027959;28;20132;-48
2021/12/14 13:26:32;;;;;;;89.68;36.53;;;8.60;99.90;;;;;;5028205;28;20042;-48
2021/12/14 13:29:12;;;;;;;88.25;36.97;;;8.70;99.90;;;;;;5031845;28;20091;-47
2021/12/14 13:31:46;;;;;;;92.57;37.45;;;9.30;99.90;;;;;;5031822;28;20076;-48
2021/12/14 13:34:17;;;;;;;100.97;38.00;;;8.70;99.90;;;;;;5032603;28;20411;-46
2021/12/14 13:36:44;;;;;;;90.95;37.00;;;8.70;99.90;;;;;;5031806;28;20053;-47
2021/12/14 13:39:12;;;;;;;93.05;36.95;;;8.70;99.90;;;;;;5029370;28;20507;-46
2021/12/14 13:41:47;;;;;;;105.10;38.28;;;8.70;99.90;;;;;;5031818;28;20064;-47
2021/12/14 13:44:13;;;;;;;92.90;36.70;;;8.70;99.90;;;;;;5032190;28;20049;-46
2021/12/14 13:46:38;;;;;;;99.28;38.25;;;8.40;99.90;;;;;;5030381;28;20387;-46